Time;durP1;ratioP1;P1;durP2;ratioP2;P2;SDS_P1;SDS_P2;PMS_P1;PMS_P2;Temp;Humidity;BMP_temperature;BMP_pressure;BME280_temperature;BME280_humidity;BME280_pressure;Samples;Min_cycle;Max_cycle;Signal;HPM_P1;HPM_P2
2021/07/28 00:00:09;;;;;;;7.40;2.47;;;;;;;25.58;45.91;100789.63;5014501;28;20029;-62
2021/07/28 00:02:34;;;;;;;4.07;2.55;;;;;;;25.55;46.29;100786.50;5014696;28;20026;-62
2021/07/28 00:04:59;;;;;;;5.53;2.63;;;;;;;25.49;46.52;100790.97;5014729;28;20116;-62
2021/07/28 00:07:25;;;;;;;8.55;2.90;;;;;;;25.44;46.27;100777.09;5014400;28;20049;-61
2021/07/28 00:09:50;;;;;;;4.18;2.60;;;;;;;25.44;45.92;100785.31;5014232;28;20080;-62
2021/07/28 00:12:16;;;;;;;4.00;2.53;;;;;;;25.39;46.51;100774.19;5014565;28;20449;-61
2021/07/28 00:14:41;;;;;;;5.05;2.75;;;;;;;25.38;46.74;100778.00;5014784;28;20022;-62
2021/07/28 00:17:10;;;;;;;5.80;3.00;;;;;;;25.35;46.76;100778.44;5014540;28;20030;-62
2021/07/28 00:19:53;;;;;;;5.57;2.95;;;;;;;25.29;46.25;100768.41;5014515;28;20029;-62
2021/07/28 00:25:06;;;;;;;3.95;2.83;;;;;;;25.24;46.67;100770.97;5014078;28;20040;-62
2021/07/28 00:27:34;;;;;;;4.53;2.83;;;;;;;25.25;46.65;100769.91;5013091;28;20109;-62
2021/07/28 00:30:00;;;;;;;11.73;3.50;;;;;;;25.26;47.10;100771.59;5012717;28;20034;-62
2021/07/28 00:32:25;;;;;;;6.60;2.80;;;;;;;25.27;47.17;100771.34;5014326;28;20502;-62
2021/07/28 00:34:50;;;;;;;4.35;2.70;;;;;;;25.28;47.27;100769.47;5012677;28;20461;-62
2021/07/28 00:37:15;;;;;;;4.13;2.60;;;;;;;25.28;47.18;100762.06;5013896;28;20061;-62
2021/07/28 00:39:41;;;;;;;3.80;2.50;;;;;;;25.26;47.12;100763.38;5014057;28;20022;-62
2021/07/28 00:42:06;;;;;;;5.72;3.00;;;;;;;25.28;47.03;100767.56;5013011;28;20155;-61
2021/07/28 00:44:31;;;;;;;9.98;3.10;;;;;;;25.28;47.15;100763.97;5013887;28;20025;-62
2021/07/28 00:46:57;;;;;;;9.43;2.65;;;;;;;25.27;47.27;100759.53;5013762;28;20022;-62
2021/07/28 00:49:23;;;;;;;8.63;2.67;;;;;;;25.27;46.78;100759.53;5014017;28;20564;-61
2021/07/28 00:51:49;;;;;;;4.63;3.13;;;;;;;25.23;47.09;100758.34;5012557;28;20034;-62
2021/07/28 00:54:14;;;;;;;6.50;3.88;;;;;;;25.23;46.83;100755.59;5012563;28;20422;-61
2021/07/28 00:56:39;;;;;;;8.55;3.78;;;;;;;25.20;47.64;100754.16;5012494;28;20026;-62
2021/07/28 00:59:11;;;;;;;7.03;2.95;;;;;;;25.17;47.83;100748.25;5012619;28;20030;-62
2021/07/28 01:01:37;;;;;;;5.13;3.42;;;;;;;25.17;47.18;100740.03;5012836;28;20021;-61
2021/07/28 01:04:02;;;;;;;6.47;3.10;;;;;;;25.18;46.98;100742.53;5012762;28;20373;-61
2021/07/28 01:06:27;;;;;;;4.70;2.97;;;;;;;25.19;47.34;100743.38;5015846;28;20025;-62
2021/07/28 01:08:54;;;;;;;6.00;2.92;;;;;;;25.15;47.51;100737.53;5016760;28;20034;-62
2021/07/28 01:11:24;;;;;;;5.65;3.20;;;;;;;25.18;47.70;100730.75;5017778;28;20022;-62
2021/07/28 01:13:50;;;;;;;3.67;2.88;;;;;;;25.17;47.43;100738.13;5017911;28;20478;-61
2021/07/28 01:16:23;;;;;;;3.85;2.72;;;;;;;25.17;47.29;100735.41;5018121;28;20026;-62
2021/07/28 01:18:49;;;;;;;11.48;3.25;;;;;;;25.18;47.69;100728.03;5017765;28;20036;-62
2021/07/28 01:21:14;;;;;;;5.75;3.28;;;;;;;25.18;47.42;100728.03;5017820;28;20351;-62
2021/07/28 01:23:40;;;;;;;6.68;3.13;;;;;;;25.18;47.94;100728.03;5016083;28;20022;-62
2021/07/28 01:26:07;;;;;;;5.85;3.05;;;;;;;25.15;47.62;100723.81;5017929;28;20061;-62
2021/07/28 01:28:34;;;;;;;6.80;2.83;;;;;;;25.10;47.86;100714.59;5017599;28;20080;-62
2021/07/28 01:31:02;;;;;;;6.43;3.03;;;;;;;25.13;47.74;100720.44;5016103;28;20552;-62
2021/07/28 01:33:32;;;;;;;6.30;2.97;;;;;;;25.13;47.66;100725.94;5017228;28;20088;-61
2021/07/28 01:35:58;;;;;;;5.72;2.75;;;;;;;25.08;47.65;100713.97;5017438;28;20025;-62
2021/07/28 01:38:27;;;;;;;6.70;3.17;;;;;;;25.04;47.38;100696.31;5015668;28;20069;-62
2021/07/28 01:40:57;;;;;;;5.25;3.55;;;;;;;25.13;47.73;100714.97;5017445;28;20022;-62
2021/07/28 01:43:23;;;;;;;6.38;3.33;;;;;;;25.11;47.67;100714.38;5015841;28;20076;-62
2021/07/28 01:45:49;;;;;;;7.03;3.55;;;;;;;25.11;47.77;100716.25;5016929;28;20030;-62
2021/07/28 01:48:14;;;;;;;4.35;3.20;;;;;;;25.08;48.26;100716.72;5016938;28;20022;-62
2021/07/28 01:50:40;;;;;;;6.22;3.70;;;;;;;25.06;48.12;100710.63;5017164;28;20030;-62
2021/07/28 01:53:05;;;;;;;6.72;3.50;;;;;;;25.07;47.88;100715.06;5016820;28;20025;-61
2021/07/28 01:55:31;;;;;;;6.47;3.58;;;;;;;25.09;47.54;100715.66;5017326;28;20033;-61
2021/07/28 01:57:58;;;;;;;9.18;4.45;;;;;;;25.05;48.55;100706.19;4999173;28;20084;-62
2021/07/28 02:00:24;;;;;;;5.45;3.55;;;;;;;25.14;48.23;100722.13;5016711;28;20018;-62
2021/07/28 02:02:49;;;;;;;7.70;3.53;;;;;;;25.17;47.90;100720.84;5016745;28;20443;-61
2021/07/28 02:05:14;;;;;;;9.00;3.60;;;;;;;25.14;48.23;100715.81;5015427;28;20080;-62
2021/07/28 02:07:40;;;;;;;5.32;3.22;;;;;;;25.17;47.94;100726.31;5016590;28;20040;-61
2021/07/28 02:10:06;;;;;;;7.03;3.78;;;;;;;25.20;48.07;100725.88;5016782;28;20032;-62
2021/07/28 02:12:31;;;;;;;5.43;3.13;;;;;;;25.23;47.91;100729.00;5016506;28;20025;-61
2021/07/28 02:14:57;;;;;;;4.40;3.05;;;;;;;25.24;48.33;100721.59;5016680;28;20049;-62
2021/07/28 02:17:22;;;;;;;6.13;3.63;;;;;;;25.26;48.15;100719.50;5016492;28;20029;-62
2021/07/28 02:19:47;;;;;;;5.35;2.75;;;;;;;25.25;47.86;100715.06;5016654;28;20111;-62
2021/07/28 02:22:13;;;;;;;6.13;3.13;;;;;;;25.26;47.85;100716.75;5015089;28;20014;-62
2021/07/28 02:24:40;;;;;;;9.15;3.35;;;;;;;25.29;48.35;100719.03;5016618;28;20432;-62
2021/07/28 02:27:05;;;;;;;5.55;3.47;;;;;;;25.30;48.60;100726.19;5016555;28;20030;-62
2021/07/28 02:29:31;;;;;;;10.18;3.00;;;;;;;25.31;48.30;100719.63;5016214;28;20032;-62
2021/07/28 02:31:57;;;;;;;4.22;2.75;;;;;;;25.32;48.49;100718.59;5016369;28;20080;-61
2021/07/28 02:34:23;;;;;;;7.45;3.78;;;;;;;25.30;47.92;100718.78;5016552;28;20050;-61
2021/07/28 02:36:48;;;;;;;5.53;3.15;;;;;;;25.26;48.33;100708.53;5016019;28;20081;-61
2021/07/28 02:39:14;;;;;;;6.57;3.70;;;;;;;25.29;47.97;100716.28;5016044;28;20026;-62
2021/07/28 02:41:39;;;;;;;10.68;3.08;;;;;;;25.29;48.57;100714.38;5016272;28;20029;-61
2021/07/28 02:44:05;;;;;;;7.18;3.47;;;;;;;25.28;48.09;100717.34;5016210;28;20506;-62
2021/07/28 02:46:30;;;;;;;3.75;2.65;;;;;;;25.25;48.42;100702.19;5016115;28;20371;-61
2021/07/28 02:48:55;;;;;;;9.30;3.40;;;;;;;25.25;48.44;100704.94;5015787;28;20030;-62
2021/07/28 02:51:21;;;;;;;5.38;2.78;;;;;;;25.29;48.62;100708.06;5015958;28;20112;-61
2021/07/28 02:53:46;;;;;;;5.15;2.85;;;;;;;25.28;48.27;100706.38;5016214;28;20037;-62
2021/07/28 02:56:11;;;;;;;7.70;3.63;;;;;;;25.28;47.97;100699.00;5016272;28;20034;-61
2021/07/28 02:58:37;;;;;;;10.23;4.32;;;;;;;25.25;48.34;100693.13;5015872;28;20030;-61
2021/07/28 03:01:02;;;;;;;5.57;2.83;;;;;;;25.28;48.22;100698.16;5015578;28;20034;-61
2021/07/28 03:03:28;;;;;;;7.03;2.92;;;;;;;25.27;48.39;100699.22;5015777;28;20030;-61
2021/07/28 03:05:53;;;;;;;6.47;3.33;;;;;;;25.21;48.28;100689.19;5015859;28;20117;-62
2021/07/28 03:08:18;;;;;;;10.88;3.00;;;;;;;25.24;48.32;100697.75;5014229;28;20116;-62
2021/07/28 03:10:45;;;;;;;5.13;2.85;;;;;;;25.23;48.02;100687.88;5014766;28;20026;-62
2021/07/28 03:13:11;;;;;;;4.43;3.13;;;;;;;25.25;48.31;100696.72;5015647;28;20030;-61
2021/07/28 03:15:36;;;;;;;7.07;3.28;;;;;;;25.19;48.74;100685.81;5014441;28;20433;-62
2021/07/28 03:18:01;;;;;;;4.90;3.20;;;;;;;25.22;48.32;100685.34;5015532;28;20036;-62
2021/07/28 03:20:27;;;;;;;6.57;2.70;;;;;;;25.22;48.63;100691.69;5015705;28;20032;-62
2021/07/28 03:22:52;;;;;;;4.90;2.95;;;;;;;25.22;48.01;100690.84;5015582;28;20057;-61
2021/07/28 03:25:17;;;;;;;5.43;2.80;;;;;;;25.19;48.74;100677.56;5015403;28;20026;-62
2021/07/28 03:27:43;;;;;;;5.07;3.00;;;;;;;25.20;47.99;100682.84;5015691;28;20048;-62
2021/07/28 03:30:09;;;;;;;5.65;3.15;;;;;;;25.17;48.56;100686.03;5014421;28;20050;-62
2021/07/28 03:32:34;;;;;;;4.30;2.65;;;;;;;25.11;48.68;100683.38;5015030;28;20030;-62
2021/07/28 03:34:59;;;;;;;4.78;2.97;;;;;;;25.12;48.89;100691.38;5013662;28;20106;-62
2021/07/28 03:37:25;;;;;;;6.57;2.75;;;;;;;25.03;48.71;100691.88;5014889;28;20054;-62
2021/07/28 03:40:00;;;;;;;7.03;3.47;;;;;;;25.07;48.74;100695.88;5013703;28;20060;-62
2021/07/28 03:42:29;;;;;;;6.03;2.60;;;;;;;25.07;48.67;100696.69;5015094;28;20022;-62
2021/07/28 03:44:55;;;;;;;6.70;2.88;;;;;;;25.02;48.63;100692.94;5013489;28;20057;-61
2021/07/28 03:47:20;;;;;;;6.40;2.88;;;;;;;25.05;48.96;100703.47;5014921;28;20105;-61
2021/07/28 03:49:46;;;;;;;4.30;2.80;;;;;;;25.02;48.31;100693.78;5014576;28;20121;-62
2021/07/28 03:52:11;;;;;;;6.70;2.97;;;;;;;25.05;48.51;100689.75;5014803;28;20022;-62
2021/07/28 03:54:36;;;;;;;4.25;2.90;;;;;;;25.07;48.74;100693.94;5014898;28;20036;-61
2021/07/28 03:57:02;;;;;;;8.82;2.75;;;;;;;25.07;48.90;100693.13;5014802;28;20025;-61
2021/07/28 03:59:27;;;;;;;11.00;3.55;;;;;;;25.09;48.68;100697.31;5014714;28;20101;-62
2021/07/28 04:01:53;;;;;;;6.80;2.67;;;;;;;25.10;48.44;100689.94;5013215;28;20018;-62
2021/07/28 04:04:18;;;;;;;9.38;2.97;;;;;;;25.06;48.43;100685.94;5014437;28;20027;-62
2021/07/28 04:06:43;;;;;;;5.78;2.95;;;;;;;25.11;48.61;100691.59;5013156;28;20018;-62
2021/07/28 04:09:09;;;;;;;5.57;2.88;;;;;;;25.13;48.25;100692.19;5014379;28;20026;-62
2021/07/28 04:11:34;;;;;;;5.03;2.53;;;;;;;25.11;48.32;100688.84;5014156;28;20036;-62
2021/07/28 04:13:59;;;;;;;6.57;2.70;;;;;;;25.09;48.70;100677.28;5014867;28;20109;-62
2021/07/28 04:16:24;;;;;;;6.90;3.38;;;;;;;25.13;49.11;100678.47;5014988;28;20057;-62
2021/07/28 04:18:50;;;;;;;4.97;2.72;;;;;;;25.15;49.12;100690.09;5014456;28;20026;-61
2021/07/28 04:21:15;;;;;;;6.97;3.45;;;;;;;25.17;48.38;100687.94;5014975;28;20018;-62
2021/07/28 04:23:41;;;;;;;5.97;3.53;;;;;;;25.18;48.91;100689.63;5014735;28;20025;-62
2021/07/28 04:26:06;;;;;;;6.30;3.38;;;;;;;25.17;48.93;100694.28;5014423;28;20529;-61
2021/07/28 04:28:31;;;;;;;7.78;3.42;;;;;;;25.17;48.83;100693.44;5014374;28;20422;-62
2021/07/28 04:30:57;;;;;;;4.07;2.78;;;;;;;25.19;48.97;100696.78;5014289;28;20053;-62
2021/07/28 04:33:22;;;;;;;7.00;3.95;;;;;;;25.19;48.53;100691.28;5014174;28;20061;-61
2021/07/28 04:35:47;;;;;;;5.47;2.90;;;;;;;25.23;48.67;100693.38;5014696;28;20034;-61
2021/07/28 04:38:13;;;;;;;6.78;3.30;;;;;;;25.23;49.18;100698.00;5012864;28;20050;-62
2021/07/28 04:40:38;;;;;;;6.15;3.15;;;;;;;25.24;49.00;100697.75;5013014;28;20025;-62
2021/07/28 04:43:03;;;;;;;5.38;3.30;;;;;;;25.20;48.50;100692.97;5014193;28;20033;-62
2021/07/28 04:45:29;;;;;;;6.05;3.22;;;;;;;25.23;48.71;100696.09;5014198;28;20065;-62
2021/07/28 04:47:54;;;;;;;6.05;3.10;;;;;;;25.28;48.80;100695.41;5014389;28;20022;-62
2021/07/28 04:50:19;;;;;;;6.47;3.67;;;;;;;25.26;48.98;100692.06;5014022;28;20033;-62
2021/07/28 04:52:44;;;;;;;5.47;3.28;;;;;;;25.32;48.99;100699.38;5014386;28;20022;-62
2021/07/28 04:55:10;;;;;;;9.65;3.33;;;;;;;25.37;48.91;100699.53;5013954;28;20076;-61
2021/07/28 04:57:35;;;;;;;5.95;3.10;;;;;;;25.36;48.95;100703.34;5012542;28;20024;-61
2021/07/28 05:00:02;;;;;;;7.55;3.00;;;;;;;25.45;48.76;100700.06;5014303;28;20425;-62
2021/07/28 05:02:27;;;;;;;6.63;3.25;;;;;;;25.49;48.64;100708.69;5012761;28;20041;-62
2021/07/28 05:04:52;;;;;;;5.80;3.25;;;;;;;25.52;48.97;100702.75;5014535;28;20033;-61
2021/07/28 05:07:18;;;;;;;7.35;2.83;;;;;;;25.57;49.11;100704.81;5014179;28;20026;-62
2021/07/28 05:09:43;;;;;;;6.25;3.05;;;;;;;25.58;48.52;100700.97;5013900;28;20037;-62
2021/07/28 05:12:09;;;;;;;12.43;4.28;;;;;;;25.61;48.83;100720.56;5044378;28;20022;-61
2021/07/28 05:14:34;;;;;;;5.22;3.42;;;;;;;25.57;49.32;100713.88;5053497;28;20025;-61
2021/07/28 05:17:00;;;;;;;5.53;3.08;;;;;;;25.50;49.71;100715.84;5053944;28;20017;-61
2021/07/28 05:19:25;;;;;;;5.25;3.15;;;;;;;25.46;49.68;100720.09;5053379;28;20028;-61
2021/07/28 05:21:50;;;;;;;5.25;3.15;;;;;;;25.41;49.92;100722.69;5052047;28;20100;-61
2021/07/28 05:24:16;;;;;;;3.83;2.85;;;;;;;25.35;50.24;100720.84;5032583;28;20059;-62
2021/07/28 05:26:41;;;;;;;6.57;3.78;;;;;;;25.28;49.86;100726.41;5033267;28;20108;-62
2021/07/28 05:29:07;;;;;;;6.68;3.45;;;;;;;25.21;50.60;100724.81;5033686;28;20079;-62
2021/07/28 05:31:32;;;;;;;6.15;3.53;;;;;;;25.10;50.69;100717.34;5032192;28;20037;-60
2021/07/28 05:33:57;;;;;;;4.85;3.45;;;;;;;25.05;50.56;100723.50;5034996;28;20406;-62
2021/07/28 05:36:23;;;;;;;7.65;4.30;;;;;;;24.96;51.16;100724.03;5031718;28;20417;-62
2021/07/28 05:38:48;;;;;;;6.82;3.80;;;;;;;24.96;51.46;100729.50;5033321;28;20049;-61
2021/07/28 05:41:13;;;;;;;4.55;3.22;;;;;;;24.90;51.34;100743.03;5032230;28;20071;-63
2021/07/28 05:43:39;;;;;;;6.97;3.63;;;;;;;24.82;51.21;100728.75;5033302;28;20025;-62
2021/07/28 05:46:04;;;;;;;6.70;3.65;;;;;;;24.75;51.66;100730.69;5040813;28;20116;-62
2021/07/28 05:48:31;;;;;;;5.55;3.28;;;;;;;24.67;51.28;100726.34;5053132;28;20377;-61
2021/07/28 05:50:57;;;;;;;3.83;2.60;;;;;;;24.58;51.08;100724.94;5053081;28;20047;-61
2021/07/28 05:53:23;;;;;;;5.30;2.33;;;;;;;24.55;51.22;100733.59;5055675;28;20021;-62
2021/07/28 05:55:48;;;;;;;5.10;2.17;;;;;;;24.46;51.69;100734.94;5056804;28;20016;-62
2021/07/28 05:58:13;;;;;;;4.18;2.42;;;;;;;24.40;51.27;100730.34;5055814;28;20520;-64
2021/07/28 06:00:39;;;;;;;5.43;2.38;;;;;;;24.35;51.72;100738.38;5055807;28;20028;-66
2021/07/28 06:03:05;;;;;;;4.78;2.40;;;;;;;24.27;51.89;100735.91;5055580;28;20036;-63
2021/07/28 06:05:30;;;;;;;3.25;2.60;;;;;;;24.21;51.75;100748.59;5056599;28;20032;-62
2021/07/28 06:07:55;;;;;;;5.20;2.83;;;;;;;24.20;52.40;100746.09;5056585;28;20033;-62
2021/07/28 06:10:21;;;;;;;3.78;2.20;;;;;;;24.20;51.69;100746.09;5056234;28;20067;-62
2021/07/28 06:12:46;;;;;;;3.08;2.20;;;;;;;24.21;52.31;100748.59;5056264;28;20032;-61
2021/07/28 06:15:12;;;;;;;4.95;2.40;;;;;;;24.17;52.09;100741.03;5056423;28;20029;-62
2021/07/28 06:17:37;;;;;;;4.63;2.08;;;;;;;24.17;52.48;100736.41;5056125;28;20036;-62
2021/07/28 06:20:04;;;;;;;5.63;2.55;;;;;;;24.19;52.78;100725.22;5056453;28;20033;-62
2021/07/28 06:22:29;;;;;;;10.95;2.53;;;;;;;24.25;52.72;100729.81;5055997;28;20461;-61
2021/07/28 06:24:55;;;;;;;5.75;2.88;;;;;;;24.31;51.66;100726.22;5056021;28;20021;-61
2021/07/28 06:27:20;;;;;;;4.53;2.60;;;;;;;24.43;52.03;100734.56;5056252;28;20091;-61
2021/07/28 06:29:46;;;;;;;6.43;2.97;;;;;;;24.48;52.59;100738.31;5056162;28;20473;-61
2021/07/28 06:32:11;;;;;;;5.43;2.30;;;;;;;24.58;52.24;100727.69;5056367;28;20032;-61
2021/07/28 06:34:36;;;;;;;8.30;3.00;;;;;;;24.72;52.39;100739.38;5055788;28;20064;-60
2021/07/28 15:37:52;;;;;;;3.33;0.82;;;;;;;32.46;31.85;100754.69;5011466;28;20061;-62
2021/07/28 15:40:17;;;;;;;1.42;1.13;;;;;;;32.42;31.93;100758.28;5014531;28;20501;-61
2021/07/28 15:42:47;;;;;;;2.05;0.75;;;;;;;32.33;31.89;100755.19;5013681;28;20026;-61
2021/07/28 15:45:17;;;;;;;4.65;1.15;;;;;;;32.33;31.64;100754.41;5014574;28;20022;-61
2021/07/28 15:47:44;;;;;;;1.20;0.93;;;;;;;32.33;31.90;100755.19;5013240;28;20028;-62
2021/07/28 15:50:12;;;;;;;2.40;0.85;;;;;;;32.27;31.73;100757.13;5015208;28;20370;-62
2021/07/28 15:52:38;;;;;;;1.73;1.00;;;;;;;32.22;31.80;100759.06;5014372;28;20029;-61
2021/07/28 15:55:06;;;;;;;2.92;0.90;;;;;;;32.17;32.14;100765.44;5014744;28;20355;-61
2021/07/28 15:57:32;;;;;;;1.25;1.02;;;;;;;32.16;31.88;100754.63;5014822;28;20100;-62
2021/07/28 15:59:57;;;;;;;2.50;1.13;;;;;;;32.20;31.68;100755.75;5015316;28;20034;-61
2021/07/28 16:02:23;;;;;;;1.15;0.60;;;;;;;32.19;32.27;100754.09;5013394;28;20025;-61
2021/07/28 16:04:48;;;;;;;3.67;0.90;;;;;;;32.18;32.49;100769.06;5014524;28;20030;-62
2021/07/28 16:07:13;;;;;;;1.65;0.80;;;;;;;32.16;32.70;100760.19;5014490;28;20022;-62
2021/07/28 16:09:39;;;;;;;1.38;1.13;;;;;;;32.11;32.31;100763.75;5014459;28;20034;-61
2021/07/28 16:12:04;;;;;;;1.88;1.00;;;;;;;32.09;33.06;100773.44;5014952;28;20101;-62
2021/07/28 16:14:46;;;;;;;5.18;0.90;;;;;;;32.07;32.33;100768.19;5015198;28;20045;-62
2021/07/28 16:17:23;;;;;;;5.78;1.15;;;;;;;32.06;32.77;100772.06;5014574;28;20029;-62
2021/07/28 16:19:52;;;;;;;2.42;1.10;;;;;;;32.03;32.54;100755.97;5014518;28;20037;-62
2021/07/28 16:22:36;;;;;;;3.15;0.90;;;;;;;32.07;32.89;100762.66;5013200;28;20041;-62
2021/07/28 16:25:02;;;;;;;3.03;1.20;;;;;;;32.03;32.26;100766.22;5014149;28;20030;-62
2021/07/28 16:27:27;;;;;;;2.92;1.00;;;;;;;31.96;32.77;100772.00;5014481;28;20075;-61
2021/07/28 16:29:53;;;;;;;4.38;0.80;;;;;;;31.85;32.82;100763.91;5014397;28;20029;-62
2021/07/28 16:32:18;;;;;;;3.15;0.93;;;;;;;31.76;32.94;100771.06;5014185;28;20028;-62
2021/07/28 16:34:44;;;;;;;0.90;0.90;;;;;;;31.70;33.09;100767.44;5014381;28;20045;-62
2021/07/28 16:37:10;;;;;;;3.72;0.82;;;;;;;31.68;32.91;100769.66;5014101;28;20470;-62
2021/07/28 16:39:35;;;;;;;1.13;0.70;;;;;;;31.64;33.20;100762.97;5027827;28;20103;-61
2021/07/28 16:42:01;;;;;;;3.80;1.00;;;;;;;31.59;33.09;100766.56;5033408;28;20040;-62
2021/07/28 16:44:26;;;;;;;3.00;1.20;;;;;;;31.51;33.44;100764.31;5025254;28;20030;-61
2021/07/28 16:46:51;;;;;;;0.82;0.80;;;;;;;31.49;32.97;100760.97;5032217;28;20036;-62
2021/07/28 16:49:17;;;;;;;3.28;1.15;;;;;;;31.43;32.95;100767.56;5029769;28;20034;-61
2021/07/28 16:51:43;;;;;;;2.90;0.73;;;;;;;31.37;33.29;100760.31;5014552;28;20037;-62
2021/07/28 16:54:08;;;;;;;4.40;1.02;;;;;;;31.38;33.25;100781.34;5014054;28;20144;-61
2021/07/28 16:56:34;;;;;;;1.88;1.02;;;;;;;31.35;33.39;100776.34;5014079;28;20026;-61
2021/07/28 16:58:59;;;;;;;5.03;0.90;;;;;;;31.23;32.95;100775.75;5014024;28;20076;-61
2021/07/28 17:01:25;;;;;;;2.05;1.13;;;;;;;31.20;32.95;100784.56;5014020;28;20022;-61
2021/07/28 17:03:51;;;;;;;2.03;0.80;;;;;;;31.13;33.18;100789.50;5012884;28;20029;-62
2021/07/28 17:06:16;;;;;;;1.25;0.90;;;;;;;31.06;33.30;100784.19;5018243;28;20021;-61
2021/07/28 17:08:44;;;;;;;2.85;0.90;;;;;;;31.05;33.39;100787.22;5033653;28;20033;-62
2021/07/28 17:11:10;;;;;;;3.58;1.10;;;;;;;30.97;33.56;100790.47;5033202;28;20033;-62
2021/07/28 17:13:35;;;;;;;2.40;1.23;;;;;;;30.95;33.71;100795.44;5033297;28;20101;-62
2021/07/28 17:16:01;;;;;;;4.43;0.93;;;;;;;30.90;33.52;100790.69;5033614;28;20458;-61
2021/07/28 17:18:27;;;;;;;1.15;0.95;;;;;;;30.91;33.60;100791.50;5033571;28;20355;-62
2021/07/28 17:20:52;;;;;;;3.53;1.10;;;;;;;30.86;33.65;100788.69;5033736;28;20470;-62
2021/07/28 17:23:19;;;;;;;3.92;1.00;;;;;;;30.86;34.00;100794.22;5033680;28;20041;-62
2021/07/28 17:25:45;;;;;;;2.38;1.10;;;;;;;30.84;33.89;100791.72;5033223;28;20482;-62
2021/07/28 17:28:10;;;;;;;1.70;1.05;;;;;;;30.77;34.08;100795.78;5032332;28;20025;-62
2021/07/28 17:30:35;;;;;;;2.42;1.13;;;;;;;30.67;33.90;100801.25;5033412;28;20428;-62
2021/07/28 17:33:01;;;;;;;1.92;1.00;;;;;;;30.56;34.11;100798.38;5033247;28;20025;-61
2021/07/28 17:35:44;;;;;;;3.22;1.00;;;;;;;30.48;33.96;100804.41;5033702;28;20030;-62
2021/07/28 17:38:24;;;;;;;2.13;0.93;;;;;;;30.38;34.23;100801.50;5031688;28;20022;-61
2021/07/28 17:40:52;;;;;;;1.45;0.93;;;;;;;30.30;34.51;100793.66;5023665;28;20068;-62
2021/07/28 17:43:18;;;;;;;3.30;0.73;;;;;;;30.21;34.33;100788.84;5012455;28;20030;-61
2021/07/28 17:45:43;;;;;;;2.42;1.05;;;;;;;30.18;34.04;100786.59;5013579;28;20382;-61
2021/07/28 17:48:09;;;;;;;4.15;1.08;;;;;;;30.09;34.32;100791.75;5014536;28;20443;-62
2021/07/28 17:50:35;;;;;;;6.13;1.10;;;;;;;30.04;34.37;100797.19;5016954;28;20022;-61
2021/07/28 17:53:00;;;;;;;4.03;1.50;;;;;;;29.96;34.71;100794.88;5017492;28;20366;-61
2021/07/28 17:55:25;;;;;;;8.63;1.30;;;;;;;29.88;34.54;100787.91;5017209;28;20030;-61
2021/07/28 17:57:51;;;;;;;4.25;1.20;;;;;;;29.78;34.52;100781.38;5016850;28;20105;-61
2021/07/28 18:00:16;;;;;;;0.77;0.70;;;;;;;29.76;34.75;100789.09;5017251;28;20075;-62
2021/07/28 18:02:42;;;;;;;1.17;0.93;;;;;;;29.70;34.59;100790.97;5017033;28;20030;-60
2021/07/28 18:05:19;;;;;;;2.05;1.08;;;;;;;29.69;34.44;100788.44;5039488;28;20029;-61
2021/07/28 18:07:45;;;;;;;3.60;1.25;;;;;;;29.57;34.19;100774.75;5036500;28;20572;-62
2021/07/28 18:10:10;;;;;;;1.95;1.30;;;;;;;29.66;33.85;100791.72;5041053;28;20049;-61
2021/07/28 18:12:36;;;;;;;1.30;1.05;;;;;;;29.66;34.52;100789.78;5046947;28;20488;-61
2021/07/28 18:15:01;;;;;;;4.40;1.38;;;;;;;29.67;35.05;100790.63;5039863;28;20109;-62
2021/07/28 18:17:27;;;;;;;1.85;1.08;;;;;;;29.66;34.60;100788.94;5036634;28;20044;-62
2021/07/28 18:19:52;;;;;;;4.03;1.40;;;;;;;29.63;34.51;100784.78;5035276;28;20061;-62
2021/07/28 18:22:18;;;;;;;2.95;1.58;;;;;;;29.66;34.92;100794.47;5035011;28;20034;-62
2021/07/28 18:24:44;;;;;;;3.30;1.02;;;;;;;29.61;34.10;100791.63;5036663;28;20043;-61
2021/07/28 18:27:11;;;;;;;3.63;1.13;;;;;;;29.51;34.44;100792.31;5036458;28;20036;-61
2021/07/28 18:29:37;;;;;;;2.75;1.00;;;;;;;29.51;34.44;100802.56;5035178;28;20029;-62
2021/07/28 18:32:02;;;;;;;1.25;1.08;;;;;;;29.45;34.85;100796.94;5034693;28;20056;-62
2021/07/28 18:34:28;;;;;;;2.42;1.17;;;;;;;29.45;34.76;100799.69;5035800;28;20083;-61
2021/07/28 18:36:54;;;;;;;3.53;1.23;;;;;;;29.42;35.12;100794.72;5036136;28;20105;-61
2021/07/28 18:39:20;;;;;;;1.40;1.17;;;;;;;29.36;34.82;100795.72;5035941;28;20155;-61
2021/07/28 18:41:46;;;;;;;3.33;1.27;;;;;;;29.38;34.67;100799.06;5018171;28;20026;-62
2021/07/28 18:44:11;;;;;;;2.03;1.00;;;;;;;29.39;35.39;100800.72;5036258;28;20088;-61
2021/07/28 18:46:36;;;;;;;2.05;1.10;;;;;;;29.37;34.35;100797.38;5036570;28;20026;-62
2021/07/28 18:49:02;;;;;;;4.40;1.33;;;;;;;29.38;35.35;100803.72;5036221;28;20478;-62
2021/07/28 18:51:28;;;;;;;2.42;1.30;;;;;;;29.37;35.01;100797.38;5036213;28;20033;-61
2021/07/28 18:53:53;;;;;;;3.95;1.40;;;;;;;29.36;34.82;100804.00;5037151;28;20029;-61
2021/07/28 18:56:22;;;;;;;2.95;1.20;;;;;;;29.34;34.79;100802.59;5036482;28;20021;-62
2021/07/28 18:58:49;;;;;;;6.22;1.10;;;;;;;29.29;34.46;100795.03;5036165;28;20104;-62
2021/07/28 19:01:14;;;;;;;2.33;1.27;;;;;;;29.29;35.14;100803.31;5034570;28;20021;-62
2021/07/28 19:03:40;;;;;;;1.70;1.13;;;;;;;29.26;34.57;100806.59;5035936;28;20028;-62
2021/07/28 19:06:05;;;;;;;3.35;1.42;;;;;;;29.21;34.73;100802.88;5034855;28;20030;-62
2021/07/28 19:08:31;;;;;;;1.67;1.17;;;;;;;29.15;35.20;100810.25;5035938;28;20108;-61
2021/07/28 19:10:58;;;;;;;1.73;1.17;;;;;;;29.08;34.81;100812.34;5036198;28;20030;-61
2021/07/28 19:13:23;;;;;;;2.05;1.25;;;;;;;28.99;35.27;100804.72;5034505;28;20484;-61
2021/07/28 19:15:48;;;;;;;3.47;1.17;;;;;;;28.92;35.72;100804.91;5035573;28;20025;-62
2021/07/28 19:18:14;;;;;;;2.95;1.60;;;;;;;28.84;35.88;100808.91;5035606;28;20351;-62
2021/07/28 19:20:39;;;;;;;2.25;1.10;;;;;;;28.76;35.67;100814.81;5035712;28;20037;-61
2021/07/28 19:23:04;;;;;;;2.15;1.10;;;;;;;28.73;34.70;100818.06;5034079;28;20053;-61
2021/07/28 19:25:31;;;;;;;1.75;1.20;;;;;;;28.66;36.01;100811.06;5035248;28;20037;-62
2021/07/28 19:27:57;;;;;;;1.85;1.35;;;;;;;28.58;35.20;100808.69;5034737;28;20060;-62
2021/07/28 19:30:22;;;;;;;3.28;1.88;;;;;;;28.54;35.77;100818.50;5035289;28;20029;-62
2021/07/28 19:32:50;;;;;;;7.70;1.13;;;;;;;28.50;35.36;100812.69;5034267;28;20526;-61
2021/07/28 19:35:15;;;;;;;1.83;1.40;;;;;;;28.44;35.98;100812.81;5035608;28;20029;-61
2021/07/28 19:37:41;;;;;;;4.82;1.80;;;;;;;28.40;36.06;100815.22;5035401;28;20025;-61
2021/07/28 19:40:07;;;;;;;3.55;1.30;;;;;;;28.39;36.41;100821.00;5034776;28;20045;-62
2021/07/28 19:42:36;;;;;;;2.38;1.17;;;;;;;28.31;35.83;100803.75;5017147;28;20053;-62
2021/07/28 19:45:06;;;;;;;3.13;1.30;;;;;;;28.30;35.87;100810.38;5035271;28;20061;-62
2021/07/28 19:47:31;;;;;;;2.42;1.27;;;;;;;28.28;36.87;100811.69;5033577;28;20389;-61
2021/07/28 19:49:57;;;;;;;6.20;1.65;;;;;;;28.20;36.64;100806.56;5033938;28;20025;-62
2021/07/28 19:52:22;;;;;;;2.15;1.15;;;;;;;28.18;36.31;100817.84;5034840;28;20033;-61
2021/07/28 19:54:47;;;;;;;2.58;1.30;;;;;;;28.14;37.11;100819.38;5034967;28;20033;-62
2021/07/28 19:57:13;;;;;;;3.25;1.15;;;;;;;28.11;36.35;100805.28;5034827;28;20520;-62
2021/07/28 19:59:38;;;;;;;4.57;1.45;;;;;;;28.08;37.50;100803.88;5034518;28;20036;-61
2021/07/28 20:02:04;;;;;;;1.92;1.15;;;;;;;28.03;36.83;100803.72;5034377;28;20028;-61
2021/07/28 20:04:29;;;;;;;1.88;1.02;;;;;;;28.00;36.74;100800.63;5016749;28;20059;-61
2021/07/28 20:06:54;;;;;;;5.05;1.55;;;;;;;27.96;36.94;100800.25;5033378;28;20024;-61
2021/07/28 20:09:20;;;;;;;9.13;1.88;;;;;;;27.90;36.99;100800.41;5033177;28;20390;-62
2021/07/28 20:11:45;;;;;;;4.65;1.17;;;;;;;27.84;36.81;100796.69;5033078;28;20425;-61
2021/07/28 20:14:10;;;;;;;3.60;1.33;;;;;;;27.78;37.69;100797.66;5033621;28;20025;-61
2021/07/28 20:16:36;;;;;;;3.00;1.48;;;;;;;27.77;37.70;100792.41;5033438;28;20059;-60
2021/07/28 20:19:04;;;;;;;3.10;1.70;;;;;;;27.68;37.16;100786.44;5033170;28;20035;-61
2021/07/28 20:21:30;;;;;;;3.78;1.25;;;;;;;27.69;37.39;100794.44;5033003;28;20056;-61